createdAt,value
2017-10-27T00:01:23.000Z,80.8
2017-10-27T00:18:05.000Z,80.8
2017-10-27T00:34:45.000Z,80.8
2017-10-27T00:51:26.000Z,81.2
2017-10-27T01:08:06.000Z,80.8
2017-10-27T01:24:47.000Z,81.2
2017-10-27T01:41:27.000Z,81.6
2017-10-27T01:58:07.000Z,82
2017-10-27T02:14:47.000Z,82
2017-10-27T02:31:28.000Z,82.4
2017-10-27T02:48:07.000Z,82.8
2017-10-27T03:04:47.000Z,82.8
2017-10-27T03:21:27.000Z,83.2
2017-10-27T03:38:07.000Z,83.2
2017-10-27T03:54:46.000Z,83.2
2017-10-27T04:11:26.000Z,83.2
2017-10-27T04:28:05.000Z,83.2
2017-10-27T04:44:45.000Z,82.8
2017-10-27T05:01:24.000Z,82.8
2017-10-27T05:18:04.000Z,82.8
2017-10-27T05:34:43.000Z,82.8
2017-10-27T05:51:23.000Z,82.8
2017-10-27T06:08:02.000Z,82.8
2017-10-27T06:24:41.000Z,82.8
2017-10-27T06:41:21.000Z,82.4
2017-10-27T06:58:00.000Z,82.4
2017-10-27T07:14:39.000Z,82
2017-10-27T07:31:19.000Z,82.4
2017-10-27T07:47:58.000Z,82
2017-10-27T08:04:38.000Z,81.6
2017-10-27T08:21:18.000Z,81.2
2017-10-27T08:37:59.000Z,80.4
2017-10-27T08:54:39.000Z,80
2017-10-27T09:11:20.000Z,79.2
2017-10-27T09:28:01.000Z,78
2017-10-27T09:44:43.000Z,76.8
2017-10-27T10:01:25.000Z,76.4
2017-10-27T10:01:25.518Z,76.4
2017-10-27T10:18:07.000Z,75.2
2017-10-27T10:18:07.451Z,75.2
2017-10-27T10:34:49.000Z,75.2
2017-10-27T10:34:49.561Z,75.2
2017-10-27T10:38:09.000Z,76.4
2017-10-27T10:38:09.812Z,76.4
2017-10-27T10:54:50.000Z,75.6
2017-10-27T10:54:50.992Z,75.6
2017-10-27T11:01:31.000Z,75.2
2017-10-27T11:01:31.575Z,75.2
2017-10-27T11:14:52.000Z,74
2017-10-27T11:14:53.164Z,74.0
2017-10-27T11:28:14.000Z,72
2017-10-27T11:28:15.053Z,72.0
2017-10-27T11:44:56.000Z,70.8
2017-10-27T12:01:39.000Z,70
2017-10-27T12:18:22.000Z,68.8
2017-10-27T12:35:05.000Z,68.4
2017-10-27T12:48:27.000Z,68.4
2017-10-27T13:05:09.000Z,70.4
2017-10-27T13:18:30.000Z,71.6
2017-10-27T13:35:11.000Z,72.4
2017-10-27T13:51:53.000Z,71.6
2017-10-27T14:08:35.000Z,71.2
2017-10-27T14:25:17.000Z,70
2017-10-27T14:41:59.000Z,71.2
2017-10-27T14:58:40.000Z,72.8
2017-10-27T15:15:21.000Z,73.2
2017-10-27T15:32:03.000Z,73.6
2017-10-27T15:48:44.000Z,72
2017-10-27T16:05:25.000Z,71.2
2017-10-27T16:22:07.000Z,71.6
2017-10-27T16:38:48.000Z,72.4
2017-10-27T16:55:28.000Z,72.8
2017-10-27T17:12:08.000Z,73.6
2017-10-27T17:28:48.000Z,73.6
2017-10-27T17:45:28.000Z,73.6
2017-10-27T18:02:09.000Z,73.6
2017-10-27T18:18:49.000Z,74
2017-10-27T18:52:09.000Z,74.4
2017-10-27T19:08:49.000Z,74.8
2017-10-27T19:25:30.000Z,74.8
2017-10-27T19:42:10.000Z,75.2
2017-10-27T19:58:50.000Z,75.6
2017-10-27T20:15:30.000Z,75.6
2017-10-27T20:32:10.000Z,75.6
2017-10-27T20:48:50.000Z,75.6
2017-10-27T21:05:31.000Z,75.6
2017-10-27T21:22:11.000Z,75.6
2017-10-27T21:38:51.000Z,76
2017-10-27T21:55:30.000Z,76
2017-10-27T22:12:10.000Z,76
2017-10-27T22:28:49.000Z,77.2
2017-10-27T22:45:28.000Z,77.6
2017-10-27T23:02:07.000Z,78
2017-10-27T23:18:46.000Z,78.4
2017-10-27T23:35:24.000Z,78.8
2017-10-27T23:52:04.000Z,78.8
